sensor_id;sensor_type;location;lat;lon;timestamp;P1;durP1;ratioP1;P2;durP2;ratioP2
65558;SDS011;52203;51.998;5.140;2023-02-01T00:01:28;5.88;;;1.63;;
65558;SDS011;52203;51.998;5.140;2023-02-01T00:03:54;4.28;;;1.30;;
65558;SDS011;52203;51.998;5.140;2023-02-01T00:06:20;7.72;;;1.70;;
65558;SDS011;52203;51.998;5.140;2023-02-01T00:08:45;6.70;;;1.73;;
65558;SDS011;52203;51.998;5.140;2023-02-01T00:11:11;6.40;;;1.55;;
65558;SDS011;52203;51.998;5.140;2023-02-01T00:13:37;7.18;;;2.03;;
65558;SDS011;52203;51.998;5.140;2023-02-01T00:16:05;4.70;;;1.48;;
65558;SDS011;52203;51.998;5.140;2023-02-01T00:18:42;5.45;;;1.48;;
65558;SDS011;52203;51.998;5.140;2023-02-01T00:21:09;5.85;;;1.77;;
65558;SDS011;52203;51.998;5.140;2023-02-01T00:23:36;4.95;;;1.60;;
65558;SDS011;52203;51.998;5.140;2023-02-01T00:26:03;6.05;;;1.40;;
65558;SDS011;52203;51.998;5.140;2023-02-01T00:28:30;6.47;;;1.75;;
65558;SDS011;52203;51.998;5.140;2023-02-01T00:30:57;5.97;;;1.98;;
65558;SDS011;52203;51.998;5.140;2023-02-01T00:33:26;6.00;;;1.73;;
65558;SDS011;52203;51.998;5.140;2023-02-01T00:35:56;6.20;;;1.38;;
65558;SDS011;52203;51.998;5.140;2023-02-01T00:38:22;5.90;;;1.50;;
65558;SDS011;52203;51.998;5.140;2023-02-01T00:40:48;3.88;;;1.45;;
65558;SDS011;52203;51.998;5.140;2023-02-01T00:43:14;4.40;;;1.27;;
65558;SDS011;52203;51.998;5.140;2023-02-01T00:45:39;6.85;;;1.70;;
65558;SDS011;52203;51.998;5.140;2023-02-01T00:48:05;6.35;;;1.58;;
65558;SDS011;52203;51.998;5.140;2023-02-01T00:50:31;5.88;;;1.80;;
65558;SDS011;52203;51.998;5.140;2023-02-01T00:52:56;4.70;;;1.60;;
65558;SDS011;52203;51.998;5.140;2023-02-01T00:55:22;5.45;;;2.10;;
65558;SDS011;52203;51.998;5.140;2023-02-01T00:57:47;6.57;;;1.60;;
65558;SDS011;52203;51.998;5.140;2023-02-01T01:00:13;6.13;;;1.40;;
65558;SDS011;52203;51.998;5.140;2023-02-01T01:02:39;4.97;;;1.25;;
65558;SDS011;52203;51.998;5.140;2023-02-01T01:05:04;4.28;;;1.27;;
65558;SDS011;52203;51.998;5.140;2023-02-01T01:07:30;4.57;;;1.20;;
65558;SDS011;52203;51.998;5.140;2023-02-01T01:09:55;7.15;;;1.63;;
65558;SDS011;52203;51.998;5.140;2023-02-01T01:12:21;7.90;;;1.80;;
65558;SDS011;52203;51.998;5.140;2023-02-01T01:14:47;7.60;;;1.60;;
65558;SDS011;52203;51.998;5.140;2023-02-01T01:17:12;8.52;;;1.70;;
65558;SDS011;52203;51.998;5.140;2023-02-01T01:19:38;5.30;;;1.73;;
65558;SDS011;52203;51.998;5.140;2023-02-01T01:22:03;4.53;;;1.35;;
65558;SDS011;52203;51.998;5.140;2023-02-01T01:24:29;4.20;;;1.48;;
65558;SDS011;52203;51.998;5.140;2023-02-01T01:26:54;6.35;;;1.30;;
65558;SDS011;52203;51.998;5.140;2023-02-01T01:29:20;4.32;;;1.50;;
65558;SDS011;52203;51.998;5.140;2023-02-01T01:31:46;6.13;;;1.38;;
65558;SDS011;52203;51.998;5.140;2023-02-01T01:34:11;6.50;;;1.60;;
65558;SDS011;52203;51.998;5.140;2023-02-01T01:36:37;4.72;;;1.30;;
65558;SDS011;52203;51.998;5.140;2023-02-01T01:39:02;4.88;;;1.40;;
65558;SDS011;52203;51.998;5.140;2023-02-01T01:41:29;2.92;;;1.42;;
65558;SDS011;52203;51.998;5.140;2023-02-01T01:43:58;7.43;;;1.65;;
65558;SDS011;52203;51.998;5.140;2023-02-01T01:46:33;5.20;;;1.38;;
65558;SDS011;52203;51.998;5.140;2023-02-01T01:51:29;8.05;;;1.55;;
65558;SDS011;52203;51.998;5.140;2023-02-01T01:54:19;6.20;;;1.65;;
65558;SDS011;52203;51.998;5.140;2023-02-01T01:56:49;5.38;;;1.40;;
65558;SDS011;52203;51.998;5.140;2023-02-01T01:59:18;4.85;;;1.60;;
65558;SDS011;52203;51.998;5.140;2023-02-01T02:01:45;7.65;;;1.75;;
65558;SDS011;52203;51.998;5.140;2023-02-01T02:04:11;8.35;;;1.55;;
65558;SDS011;52203;51.998;5.140;2023-02-01T02:09:06;2.83;;;1.33;;
65558;SDS011;52203;51.998;5.140;2023-02-01T02:11:31;5.25;;;1.65;;
65558;SDS011;52203;51.998;5.140;2023-02-01T02:13:57;5.80;;;1.23;;
65558;SDS011;52203;51.998;5.140;2023-02-01T02:16:27;5.47;;;1.80;;
65558;SDS011;52203;51.998;5.140;2023-02-01T02:22:24;6.25;;;1.63;;
65558;SDS011;52203;51.998;5.140;2023-02-01T02:34:20;4.88;;;1.30;;
65558;SDS011;52203;51.998;5.140;2023-02-01T02:39:03;5.32;;;1.30;;
65558;SDS011;52203;51.998;5.140;2023-02-01T02:41:33;6.07;;;1.38;;
65558;SDS011;52203;51.998;5.140;2023-02-01T02:44:54;5.43;;;1.67;;
65558;SDS011;52203;51.998;5.140;2023-02-01T02:47:58;7.07;;;1.45;;
65558;SDS011;52203;51.998;5.140;2023-02-01T02:50:38;4.82;;;1.30;;
65558;SDS011;52203;51.998;5.140;2023-02-01T02:53:28;4.65;;;1.30;;
65558;SDS011;52203;51.998;5.140;2023-02-01T02:56:18;7.68;;;1.50;;
65558;SDS011;52203;51.998;5.140;2023-02-01T02:59:06;7.60;;;1.70;;
65558;SDS011;52203;51.998;5.140;2023-02-01T03:01:52;4.47;;;1.58;;
65558;SDS011;52203;51.998;5.140;2023-02-01T03:04:37;4.38;;;1.25;;
65558;SDS011;52203;51.998;5.140;2023-02-01T03:07:11;5.40;;;1.20;;
65558;SDS011;52203;51.998;5.140;2023-02-01T03:09:59;7.70;;;1.48;;
65558;SDS011;52203;51.998;5.140;2023-02-01T03:12:30;7.28;;;2.15;;
65558;SDS011;52203;51.998;5.140;2023-02-01T03:15:20;5.95;;;1.45;;
65558;SDS011;52203;51.998;5.140;2023-02-01T03:17:51;4.88;;;1.30;;
65558;SDS011;52203;51.998;5.140;2023-02-01T03:20:20;4.45;;;1.42;;
65558;SDS011;52203;51.998;5.140;2023-02-01T03:22:49;4.45;;;2.08;;
65558;SDS011;52203;51.998;5.140;2023-02-01T03:25:20;5.32;;;1.25;;
65558;SDS011;52203;51.998;5.140;2023-02-01T03:28:09;6.40;;;1.55;;
65558;SDS011;52203;51.998;5.140;2023-02-01T03:30:37;7.13;;;1.55;;
65558;SDS011;52203;51.998;5.140;2023-02-01T03:33:08;5.95;;;1.52;;
65558;SDS011;52203;51.998;5.140;2023-02-01T03:43:49;3.95;;;1.20;;
65558;SDS011;52203;51.998;5.140;2023-02-01T03:46:40;4.68;;;1.55;;
65558;SDS011;52203;51.998;5.140;2023-02-01T03:49:10;4.40;;;1.60;;
65558;SDS011;52203;51.998;5.140;2023-02-01T03:51:42;6.75;;;1.30;;
65558;SDS011;52203;51.998;5.140;2023-02-01T03:54:09;4.60;;;1.30;;
65558;SDS011;52203;51.998;5.140;2023-02-01T03:56:38;3.90;;;1.33;;
65558;SDS011;52203;51.998;5.140;2023-02-01T03:59:09;5.63;;;1.50;;
65558;SDS011;52203;51.998;5.140;2023-02-01T04:01:35;4.75;;;1.40;;
65558;SDS011;52203;51.998;5.140;2023-02-01T04:04:00;5.25;;;1.42;;
65558;SDS011;52203;51.998;5.140;2023-02-01T04:06:26;4.68;;;1.52;;
65558;SDS011;52203;51.998;5.140;2023-02-01T04:08:52;7.00;;;1.67;;
65558;SDS011;52203;51.998;5.140;2023-02-01T04:11:17;5.80;;;1.20;;
65558;SDS011;52203;51.998;5.140;2023-02-01T04:13:43;8.55;;;1.70;;
65558;SDS011;52203;51.998;5.140;2023-02-01T04:16:09;6.93;;;1.50;;
65558;SDS011;52203;51.998;5.140;2023-02-01T04:18:34;6.47;;;1.50;;
65558;SDS011;52203;51.998;5.140;2023-02-01T04:21:01;3.70;;;1.20;;
65558;SDS011;52203;51.998;5.140;2023-02-01T04:23:27;5.53;;;1.20;;
65558;SDS011;52203;51.998;5.140;2023-02-01T04:25:53;6.70;;;1.98;;
65558;SDS011;52203;51.998;5.140;2023-02-01T04:28:23;3.92;;;1.17;;
65558;SDS011;52203;51.998;5.140;2023-02-01T04:30:49;6.90;;;1.67;;
65558;SDS011;52203;51.998;5.140;2023-02-01T04:33:15;6.10;;;2.08;;
65558;SDS011;52203;51.998;5.140;2023-02-01T04:35:40;5.85;;;1.50;;
65558;SDS011;52203;51.998;5.140;2023-02-01T04:38:06;2.92;;;1.20;;
65558;SDS011;52203;51.998;5.140;2023-02-01T04:40:32;7.35;;;1.60;;
65558;SDS011;52203;51.998;5.140;2023-02-01T04:42:58;6.68;;;1.67;;
65558;SDS011;52203;51.998;5.140;2023-02-01T04:45:26;7.05;;;1.58;;
65558;SDS011;52203;51.998;5.140;2023-02-01T04:47:51;6.32;;;1.27;;
65558;SDS011;52203;51.998;5.140;2023-02-01T04:50:17;6.43;;;1.98;;
65558;SDS011;52203;51.998;5.140;2023-02-01T04:52:43;9.18;;;1.65;;
65558;SDS011;52203;51.998;5.140;2023-02-01T04:55:10;4.55;;;1.25;;
65558;SDS011;52203;51.998;5.140;2023-02-01T04:57:36;5.75;;;1.20;;
65558;SDS011;52203;51.998;5.140;2023-02-01T05:00:04;3.53;;;1.38;;
65558;SDS011;52203;51.998;5.140;2023-02-01T05:02:30;7.13;;;1.50;;
65558;SDS011;52203;51.998;5.140;2023-02-01T05:04:57;9.82;;;1.60;;
65558;SDS011;52203;51.998;5.140;2023-02-01T05:07:22;5.13;;;1.50;;
65558;SDS011;52203;51.998;5.140;2023-02-01T05:09:48;6.32;;;1.30;;
65558;SDS011;52203;51.998;5.140;2023-02-01T05:12:14;5.38;;;1.40;;
65558;SDS011;52203;51.998;5.140;2023-02-01T05:14:58;6.13;;;1.40;;
65558;SDS011;52203;51.998;5.140;2023-02-01T05:17:23;5.72;;;1.35;;
65558;SDS011;52203;51.998;5.140;2023-02-01T05:19:49;7.95;;;1.83;;
65558;SDS011;52203;51.998;5.140;2023-02-01T05:22:15;3.97;;;1.25;;
65558;SDS011;52203;51.998;5.140;2023-02-01T05:24:40;3.53;;;1.38;;
65558;SDS011;52203;51.998;5.140;2023-02-01T05:27:06;5.50;;;1.80;;
65558;SDS011;52203;51.998;5.140;2023-02-01T05:29:31;8.20;;;1.85;;
65558;SDS011;52203;51.998;5.140;2023-02-01T05:31:57;5.50;;;1.40;;
65558;SDS011;52203;51.998;5.140;2023-02-01T05:34:22;6.25;;;1.70;;
65558;SDS011;52203;51.998;5.140;2023-02-01T05:36:48;5.50;;;1.40;;
65558;SDS011;52203;51.998;5.140;2023-02-01T05:39:14;7.65;;;1.52;;
65558;SDS011;52203;51.998;5.140;2023-02-01T05:41:39;7.97;;;1.65;;
65558;SDS011;52203;51.998;5.140;2023-02-01T05:44:05;8.65;;;1.30;;
65558;SDS011;52203;51.998;5.140;2023-02-01T05:46:32;7.28;;;2.00;;
65558;SDS011;52203;51.998;5.140;2023-02-01T05:48:59;5.05;;;2.05;;
65558;SDS011;52203;51.998;5.140;2023-02-01T05:51:24;6.75;;;1.65;;
65558;SDS011;52203;51.998;5.140;2023-02-01T05:53:50;6.03;;;1.30;;
65558;SDS011;52203;51.998;5.140;2023-02-01T05:56:15;8.63;;;1.95;;
65558;SDS011;52203;51.998;5.140;2023-02-01T05:58:41;7.47;;;1.52;;
65558;SDS011;52203;51.998;5.140;2023-02-01T06:01:07;4.78;;;1.20;;
65558;SDS011;52203;51.998;5.140;2023-02-01T06:03:32;10.60;;;1.73;;
65558;SDS011;52203;51.998;5.140;2023-02-01T06:05:58;5.47;;;1.55;;
65558;SDS011;52203;51.998;5.140;2023-02-01T06:08:26;4.45;;;1.40;;
65558;SDS011;52203;51.998;5.140;2023-02-01T06:10:57;6.72;;;1.88;;
65558;SDS011;52203;51.998;5.140;2023-02-01T06:13:26;6.15;;;1.40;;
65558;SDS011;52203;51.998;5.140;2023-02-01T06:15:52;6.03;;;1.70;;
65558;SDS011;52203;51.998;5.140;2023-02-01T06:18:18;5.28;;;1.30;;
65558;SDS011;52203;51.998;5.140;2023-02-01T06:20:44;5.35;;;1.92;;
65558;SDS011;52203;51.998;5.140;2023-02-01T06:23:09;5.68;;;1.60;;
65558;SDS011;52203;51.998;5.140;2023-02-01T06:25:35;3.53;;;1.38;;
65558;SDS011;52203;51.998;5.140;2023-02-01T06:28:00;6.82;;;1.50;;
65558;SDS011;52203;51.998;5.140;2023-02-01T06:30:27;4.57;;;1.50;;
65558;SDS011;52203;51.998;5.140;2023-02-01T06:32:52;4.85;;;1.55;;
65558;SDS011;52203;51.998;5.140;2023-02-01T06:35:21;4.63;;;1.50;;
65558;SDS011;52203;51.998;5.140;2023-02-01T06:37:46;5.43;;;1.20;;
65558;SDS011;52203;51.998;5.140;2023-02-01T06:40:12;9.77;;;1.77;;
65558;SDS011;52203;51.998;5.140;2023-02-01T06:42:38;5.80;;;1.50;;
65558;SDS011;52203;51.998;5.140;2023-02-01T06:45:04;3.70;;;1.30;;
65558;SDS011;52203;51.998;5.140;2023-02-01T06:47:31;5.15;;;1.40;;
65558;SDS011;52203;51.998;5.140;2023-02-01T06:49:57;8.10;;;1.42;;
65558;SDS011;52203;51.998;5.140;2023-02-01T06:52:22;4.70;;;1.33;;
65558;SDS011;52203;51.998;5.140;2023-02-01T06:54:48;5.13;;;1.58;;
65558;SDS011;52203;51.998;5.140;2023-02-01T06:57:14;5.72;;;1.63;;
65558;SDS011;52203;51.998;5.140;2023-02-01T06:59:39;4.45;;;1.60;;
65558;SDS011;52203;51.998;5.140;2023-02-01T07:02:05;7.32;;;1.50;;
65558;SDS011;52203;51.998;5.140;2023-02-01T07:04:30;4.35;;;1.35;;
65558;SDS011;52203;51.998;5.140;2023-02-01T07:06:56;6.35;;;1.20;;
65558;SDS011;52203;51.998;5.140;2023-02-01T07:09:22;4.82;;;1.38;;
65558;SDS011;52203;51.998;5.140;2023-02-01T07:11:47;4.32;;;1.67;;
65558;SDS011;52203;51.998;5.140;2023-02-01T07:14:13;4.45;;;1.83;;
65558;SDS011;52203;51.998;5.140;2023-02-01T07:16:39;4.53;;;1.13;;
65558;SDS011;52203;51.998;5.140;2023-02-01T07:19:04;5.43;;;1.50;;
65558;SDS011;52203;51.998;5.140;2023-02-01T07:21:30;3.60;;;1.40;;
65558;SDS011;52203;51.998;5.140;2023-02-01T07:23:55;4.00;;;1.10;;
65558;SDS011;52203;51.998;5.140;2023-02-01T07:26:21;3.67;;;1.20;;
65558;SDS011;52203;51.998;5.140;2023-02-01T07:28:47;6.13;;;1.48;;
65558;SDS011;52203;51.998;5.140;2023-02-01T07:31:14;4.05;;;1.70;;
65558;SDS011;52203;51.998;5.140;2023-02-01T07:33:46;4.38;;;1.30;;
65558;SDS011;52203;51.998;5.140;2023-02-01T07:36:12;4.05;;;1.35;;
65558;SDS011;52203;51.998;5.140;2023-02-01T07:38:40;4.15;;;1.20;;
65558;SDS011;52203;51.998;5.140;2023-02-01T07:41:06;6.40;;;1.65;;
65558;SDS011;52203;51.998;5.140;2023-02-01T07:43:33;7.25;;;1.50;;
65558;SDS011;52203;51.998;5.140;2023-02-01T07:45:58;3.53;;;1.25;;
65558;SDS011;52203;51.998;5.140;2023-02-01T07:48:24;4.40;;;1.30;;
65558;SDS011;52203;51.998;5.140;2023-02-01T07:50:58;6.68;;;1.42;;
65558;SDS011;52203;51.998;5.140;2023-02-01T07:53:23;4.45;;;1.20;;
65558;SDS011;52203;51.998;5.140;2023-02-01T07:55:49;5.47;;;1.30;;
65558;SDS011;52203;51.998;5.140;2023-02-01T07:58:15;3.72;;;1.30;;
65558;SDS011;52203;51.998;5.140;2023-02-01T08:00:40;4.07;;;1.48;;
65558;SDS011;52203;51.998;5.140;2023-02-01T08:03:24;4.55;;;1.50;;
65558;SDS011;52203;51.998;5.140;2023-02-01T08:05:56;6.70;;;1.42;;
65558;SDS011;52203;51.998;5.140;2023-02-01T08:08:22;7.13;;;1.80;;
65558;SDS011;52203;51.998;5.140;2023-02-01T08:10:47;5.65;;;1.60;;
65558;SDS011;52203;51.998;5.140;2023-02-01T08:13:13;5.22;;;1.45;;
65558;SDS011;52203;51.998;5.140;2023-02-01T08:15:39;5.15;;;1.58;;
65558;SDS011;52203;51.998;5.140;2023-02-01T08:18:05;8.75;;;2.00;;
65558;SDS011;52203;51.998;5.140;2023-02-01T08:20:30;5.78;;;1.58;;
65558;SDS011;52203;51.998;5.140;2023-02-01T08:22:56;6.07;;;1.70;;
65558;SDS011;52203;51.998;5.140;2023-02-01T08:25:23;8.07;;;1.75;;
65558;SDS011;52203;51.998;5.140;2023-02-01T08:27:49;10.30;;;2.53;;
65558;SDS011;52203;51.998;5.140;2023-02-01T08:30:15;5.93;;;1.70;;
65558;SDS011;52203;51.998;5.140;2023-02-01T08:32:41;5.18;;;1.65;;
65558;SDS011;52203;51.998;5.140;2023-02-01T08:35:07;7.45;;;1.50;;
65558;SDS011;52203;51.998;5.140;2023-02-01T08:37:33;3.38;;;1.42;;
65558;SDS011;52203;51.998;5.140;2023-02-01T08:39:59;5.30;;;1.60;;
65558;SDS011;52203;51.998;5.140;2023-02-01T08:42:24;7.88;;;1.80;;
65558;SDS011;52203;51.998;5.140;2023-02-01T08:45:08;3.30;;;1.58;;
65558;SDS011;52203;51.998;5.140;2023-02-01T08:47:34;7.88;;;1.63;;
65558;SDS011;52203;51.998;5.140;2023-02-01T08:50:00;4.65;;;1.35;;
65558;SDS011;52203;51.998;5.140;2023-02-01T08:52:26;7.30;;;1.67;;
65558;SDS011;52203;51.998;5.140;2023-02-01T08:54:51;6.55;;;1.77;;
65558;SDS011;52203;51.998;5.140;2023-02-01T08:57:17;13.20;;;2.45;;
65558;SDS011;52203;51.998;5.140;2023-02-01T08:59:43;8.93;;;2.00;;
65558;SDS011;52203;51.998;5.140;2023-02-01T09:02:12;6.10;;;1.77;;
65558;SDS011;52203;51.998;5.140;2023-02-01T09:04:38;5.57;;;1.60;;
65558;SDS011;52203;51.998;5.140;2023-02-01T09:07:04;6.32;;;1.48;;
65558;SDS011;52203;51.998;5.140;2023-02-01T09:09:30;7.70;;;1.98;;
65558;SDS011;52203;51.998;5.140;2023-02-01T09:11:55;7.55;;;1.75;;
65558;SDS011;52203;51.998;5.140;2023-02-01T09:14:21;7.65;;;1.73;;
65558;SDS011;52203;51.998;5.140;2023-02-01T09:16:46;9.27;;;1.95;;
65558;SDS011;52203;51.998;5.140;2023-02-01T09:19:12;6.40;;;1.80;;
65558;SDS011;52203;51.998;5.140;2023-02-01T09:21:37;8.80;;;1.85;;
65558;SDS011;52203;51.998;5.140;2023-02-01T09:24:03;10.00;;;2.10;;
65558;SDS011;52203;51.998;5.140;2023-02-01T09:26:29;6.70;;;1.60;;
65558;SDS011;52203;51.998;5.140;2023-02-01T09:28:54;12.77;;;2.78;;
65558;SDS011;52203;51.998;5.140;2023-02-01T09:31:20;9.07;;;1.77;;
65558;SDS011;52203;51.998;5.140;2023-02-01T09:33:45;10.80;;;2.17;;
65558;SDS011;52203;51.998;5.140;2023-02-01T09:36:11;7.53;;;2.05;;
65558;SDS011;52203;51.998;5.140;2023-02-01T09:38:37;9.02;;;2.45;;
65558;SDS011;52203;51.998;5.140;2023-02-01T09:41:07;7.75;;;2.03;;
65558;SDS011;52203;51.998;5.140;2023-02-01T09:44:09;7.38;;;1.55;;
65558;SDS011;52203;51.998;5.140;2023-02-01T09:46:56;7.30;;;1.90;;
65558;SDS011;52203;51.998;5.140;2023-02-01T09:49:26;9.00;;;2.53;;
65558;SDS011;52203;51.998;5.140;2023-02-01T09:51:55;6.90;;;1.75;;
65558;SDS011;52203;51.998;5.140;2023-02-01T09:54:23;8.43;;;2.00;;
65558;SDS011;52203;51.998;5.140;2023-02-01T09:59:41;11.52;;;2.75;;
65558;SDS011;52203;51.998;5.140;2023-02-01T10:02:20;5.35;;;1.70;;
65558;SDS011;52203;51.998;5.140;2023-02-01T10:04:48;7.57;;;1.98;;
65558;SDS011;52203;51.998;5.140;2023-02-01T10:18:22;8.57;;;1.88;;
65558;SDS011;52203;51.998;5.140;2023-02-01T10:26:49;10.43;;;1.55;;
65558;SDS011;52203;51.998;5.140;2023-02-01T10:29:24;7.80;;;1.85;;
65558;SDS011;52203;51.998;5.140;2023-02-01T10:31:57;7.50;;;2.47;;
65558;SDS011;52203;51.998;5.140;2023-02-01T10:36:55;8.38;;;2.03;;
65558;SDS011;52203;51.998;5.140;2023-02-01T10:39:46;9.57;;;1.85;;
65558;SDS011;52203;51.998;5.140;2023-02-01T10:42:13;9.35;;;2.35;;
65558;SDS011;52203;51.998;5.140;2023-02-01T10:44:40;11.90;;;2.47;;
65558;SDS011;52203;51.998;5.140;2023-02-01T10:47:10;11.85;;;2.10;;
65558;SDS011;52203;51.998;5.140;2023-02-01T10:52:18;7.97;;;1.83;;
65558;SDS011;52203;51.998;5.140;2023-02-01T10:54:53;8.38;;;1.70;;
65558;SDS011;52203;51.998;5.140;2023-02-01T10:57:22;7.25;;;1.80;;
65558;SDS011;52203;51.998;5.140;2023-02-01T10:59:50;6.05;;;1.88;;
65558;SDS011;52203;51.998;5.140;2023-02-01T11:04:48;7.28;;;1.80;;
65558;SDS011;52203;51.998;5.140;2023-02-01T11:07:23;5.85;;;1.70;;
65558;SDS011;52203;51.998;5.140;2023-02-01T11:09:51;7.13;;;1.65;;
65558;SDS011;52203;51.998;5.140;2023-02-01T11:17:39;6.28;;;1.85;;
65558;SDS011;52203;51.998;5.140;2023-02-01T11:20:18;7.05;;;2.30;;
65558;SDS011;52203;51.998;5.140;2023-02-01T11:22:52;5.57;;;1.90;;
65558;SDS011;52203;51.998;5.140;2023-02-01T11:25:20;8.73;;;2.00;;
65558;SDS011;52203;51.998;5.140;2023-02-01T11:27:47;8.00;;;2.03;;
65558;SDS011;52203;51.998;5.140;2023-02-01T11:30:18;7.57;;;1.80;;
65558;SDS011;52203;51.998;5.140;2023-02-01T11:33:05;6.53;;;1.60;;
65558;SDS011;52203;51.998;5.140;2023-02-01T11:35:32;6.85;;;1.52;;
65558;SDS011;52203;51.998;5.140;2023-02-01T11:38:09;5.50;;;1.38;;
65558;SDS011;52203;51.998;5.140;2023-02-01T11:40:45;5.10;;;1.48;;
65558;SDS011;52203;51.998;5.140;2023-02-01T11:43:16;9.32;;;1.95;;
65558;SDS011;52203;51.998;5.140;2023-02-01T11:45:53;5.30;;;1.45;;
65558;SDS011;52203;51.998;5.140;2023-02-01T11:48:30;6.78;;;1.90;;
65558;SDS011;52203;51.998;5.140;2023-02-01T11:51:21;5.40;;;1.73;;
65558;SDS011;52203;51.998;5.140;2023-02-01T11:59:30;5.75;;;1.30;;
65558;SDS011;52203;51.998;5.140;2023-02-01T12:04:57;7.32;;;1.50;;
65558;SDS011;52203;51.998;5.140;2023-02-01T12:07:49;3.65;;;1.38;;
65558;SDS011;52203;51.998;5.140;2023-02-01T12:10:43;4.65;;;1.27;;
65558;SDS011;52203;51.998;5.140;2023-02-01T12:19:04;3.58;;;1.45;;
65558;SDS011;52203;51.998;5.140;2023-02-01T12:30:38;6.07;;;1.50;;
65558;SDS011;52203;51.998;5.140;2023-02-01T12:36:36;5.10;;;1.25;;
65558;SDS011;52203;51.998;5.140;2023-02-01T12:39:17;4.45;;;1.30;;
65558;SDS011;52203;51.998;5.140;2023-02-01T12:41:53;5.72;;;1.52;;
65558;SDS011;52203;51.998;5.140;2023-02-01T12:47:22;6.28;;;1.73;;
65558;SDS011;52203;51.998;5.140;2023-02-01T12:49:57;3.25;;;1.27;;
65558;SDS011;52203;51.998;5.140;2023-02-01T12:57:36;6.75;;;1.63;;
65558;SDS011;52203;51.998;5.140;2023-02-01T13:03:02;5.50;;;1.27;;
65558;SDS011;52203;51.998;5.140;2023-02-01T13:05:50;4.35;;;1.35;;
65558;SDS011;52203;51.998;5.140;2023-02-01T13:08:22;4.60;;;1.50;;
65558;SDS011;52203;51.998;5.140;2023-02-01T13:10:53;3.38;;;1.40;;
65558;SDS011;52203;51.998;5.140;2023-02-01T13:13:35;6.88;;;2.22;;
65558;SDS011;52203;51.998;5.140;2023-02-01T13:16:32;4.72;;;1.23;;
65558;SDS011;52203;51.998;5.140;2023-02-01T13:19:09;5.75;;;1.40;;
65558;SDS011;52203;51.998;5.140;2023-02-01T13:21:37;8.25;;;1.60;;
65558;SDS011;52203;51.998;5.140;2023-02-01T13:24:13;6.80;;;1.58;;
65558;SDS011;52203;51.998;5.140;2023-02-01T13:26:46;3.90;;;1.70;;
65558;SDS011;52203;51.998;5.140;2023-02-01T13:29:11;4.32;;;1.30;;
65558;SDS011;52203;51.998;5.140;2023-02-01T13:31:59;6.30;;;1.90;;
65558;SDS011;52203;51.998;5.140;2023-02-01T13:37:32;6.32;;;1.92;;
65558;SDS011;52203;51.998;5.140;2023-02-01T13:40:36;8.07;;;2.15;;
65558;SDS011;52203;51.998;5.140;2023-02-01T13:43:14;11.57;;;2.90;;
65558;SDS011;52203;51.998;5.140;2023-02-01T13:45:48;11.85;;;3.13;;
65558;SDS011;52203;51.998;5.140;2023-02-01T13:48:58;7.57;;;2.42;;
65558;SDS011;52203;51.998;5.140;2023-02-01T13:51:10;11.98;;;2.90;;
65558;SDS011;52203;51.998;5.140;2023-02-01T13:53:38;11.38;;;3.67;;
65558;SDS011;52203;51.998;5.140;2023-02-01T13:56:18;105.57;;;26.50;;
65558;SDS011;52203;51.998;5.140;2023-02-01T13:58:46;151.32;;;42.67;;
65558;SDS011;52203;51.998;5.140;2023-02-01T14:19:36;117.68;;;31.60;;
65558;SDS011;52203;51.998;5.140;2023-02-01T14:24:39;100.35;;;28.98;;
65558;SDS011;52203;51.998;5.140;2023-02-01T14:29:37;98.65;;;25.95;;
65558;SDS011;52203;51.998;5.140;2023-02-01T14:32:21;99.80;;;27.02;;
65558;SDS011;52203;51.998;5.140;2023-02-01T14:39:53;96.80;;;25.95;;
65558;SDS011;52203;51.998;5.140;2023-02-01T15:04:13;56.28;;;15.27;;
65558;SDS011;52203;51.998;5.140;2023-02-01T15:09:38;54.40;;;14.07;;
65558;SDS011;52203;51.998;5.140;2023-02-01T15:14:38;50.28;;;12.98;;
65558;SDS011;52203;51.998;5.140;2023-02-01T15:17:23;57.20;;;14.57;;
65558;SDS011;52203;51.998;5.140;2023-02-01T15:20:12;44.45;;;12.35;;
65558;SDS011;52203;51.998;5.140;2023-02-01T15:22:40;49.60;;;12.32;;
65558;SDS011;52203;51.998;5.140;2023-02-01T15:25:20;24.58;;;5.63;;
65558;SDS011;52203;51.998;5.140;2023-02-01T15:27:48;27.85;;;7.07;;
65558;SDS011;52203;51.998;5.140;2023-02-01T15:30:18;31.13;;;6.82;;
65558;SDS011;52203;51.998;5.140;2023-02-01T15:32:46;29.88;;;6.97;;
65558;SDS011;52203;51.998;5.140;2023-02-01T15:35:32;22.38;;;6.85;;
65558;SDS011;52203;51.998;5.140;2023-02-01T15:43:46;30.95;;;7.53;;
65558;SDS011;52203;51.998;5.140;2023-02-01T15:46:21;27.25;;;7.15;;
65558;SDS011;52203;51.998;5.140;2023-02-01T15:48:50;24.67;;;7.10;;
65558;SDS011;52203;51.998;5.140;2023-02-01T15:51:21;25.05;;;8.10;;
65558;SDS011;52203;51.998;5.140;2023-02-01T15:53:50;30.02;;;8.07;;
65558;SDS011;52203;51.998;5.140;2023-02-01T15:56:23;25.42;;;7.82;;
65558;SDS011;52203;51.998;5.140;2023-02-01T15:58:52;26.67;;;7.68;;
65558;SDS011;52203;51.998;5.140;2023-02-01T16:01:19;33.20;;;7.65;;
65558;SDS011;52203;51.998;5.140;2023-02-01T16:03:46;22.83;;;6.80;;
65558;SDS011;52203;51.998;5.140;2023-02-01T16:08:52;25.73;;;7.70;;
65558;SDS011;52203;51.998;5.140;2023-02-01T16:11:40;22.55;;;7.32;;
65558;SDS011;52203;51.998;5.140;2023-02-01T16:14:13;25.27;;;7.72;;
65558;SDS011;52203;51.998;5.140;2023-02-01T16:16:39;23.40;;;7.80;;
65558;SDS011;52203;51.998;5.140;2023-02-01T16:19:04;21.85;;;7.15;;
65558;SDS011;52203;51.998;5.140;2023-02-01T16:21:30;19.20;;;6.65;;
65558;SDS011;52203;51.998;5.140;2023-02-01T16:23:56;21.80;;;7.32;;
65558;SDS011;52203;51.998;5.140;2023-02-01T16:26:24;25.38;;;7.93;;
65558;SDS011;52203;51.998;5.140;2023-02-01T16:28:50;23.15;;;6.95;;
65558;SDS011;52203;51.998;5.140;2023-02-01T16:31:16;21.33;;;6.30;;
65558;SDS011;52203;51.998;5.140;2023-02-01T16:33:48;17.65;;;6.95;;
65558;SDS011;52203;51.998;5.140;2023-02-01T16:36:15;20.90;;;6.78;;
65558;SDS011;52203;51.998;5.140;2023-02-01T16:38:41;15.82;;;6.07;;
65558;SDS011;52203;51.998;5.140;2023-02-01T16:41:09;18.65;;;5.93;;
65558;SDS011;52203;51.998;5.140;2023-02-01T16:43:38;16.65;;;5.82;;
65558;SDS011;52203;51.998;5.140;2023-02-01T16:46:04;19.35;;;5.55;;
65558;SDS011;52203;51.998;5.140;2023-02-01T16:48:30;17.85;;;6.38;;
65558;SDS011;52203;51.998;5.140;2023-02-01T16:51:01;14.40;;;5.75;;
65558;SDS011;52203;51.998;5.140;2023-02-01T16:53:34;19.02;;;6.10;;
65558;SDS011;52203;51.998;5.140;2023-02-01T16:55:59;16.88;;;5.05;;
65558;SDS011;52203;51.998;5.140;2023-02-01T16:58:28;17.38;;;4.90;;
65558;SDS011;52203;51.998;5.140;2023-02-01T17:00:53;15.10;;;4.95;;
65558;SDS011;52203;51.998;5.140;2023-02-01T17:03:20;18.10;;;5.38;;
65558;SDS011;52203;51.998;5.140;2023-02-01T17:05:54;13.43;;;5.22;;
65558;SDS011;52203;51.998;5.140;2023-02-01T17:08:24;14.75;;;4.70;;
65558;SDS011;52203;51.998;5.140;2023-02-01T17:10:57;15.40;;;4.80;;
65558;SDS011;52203;51.998;5.140;2023-02-01T17:13:22;21.98;;;7.05;;
65558;SDS011;52203;51.998;5.140;2023-02-01T17:15:49;21.75;;;7.63;;
65558;SDS011;52203;51.998;5.140;2023-02-01T17:18:17;25.65;;;8.07;;
65558;SDS011;52203;51.998;5.140;2023-02-01T17:20:43;30.90;;;9.90;;
65558;SDS011;52203;51.998;5.140;2023-02-01T17:23:11;33.92;;;11.38;;
65558;SDS011;52203;51.998;5.140;2023-02-01T17:25:37;31.85;;;10.70;;
65558;SDS011;52203;51.998;5.140;2023-02-01T17:28:02;26.92;;;10.18;;
65558;SDS011;52203;51.998;5.140;2023-02-01T17:30:28;23.02;;;8.90;;
65558;SDS011;52203;51.998;5.140;2023-02-01T17:32:55;29.95;;;8.93;;
65558;SDS011;52203;51.998;5.140;2023-02-01T17:35:22;26.60;;;9.75;;
65558;SDS011;52203;51.998;5.140;2023-02-01T17:37:50;25.40;;;9.32;;
65558;SDS011;52203;51.998;5.140;2023-02-01T17:40:16;32.05;;;9.73;;
65558;SDS011;52203;51.998;5.140;2023-02-01T17:42:42;27.75;;;9.32;;
65558;SDS011;52203;51.998;5.140;2023-02-01T17:47:52;26.30;;;8.40;;